Historique des mesures à Cassis (13260), France
Quotidien Résumé Septembre 11, 2017 Unités:  Métrique    US   Métrique/US
« Précédent (Jour)
Suivant (Jour) »
Quotidien Hebdomadaire Mensuel Annuel Période au choix
  Maximum: Minimum: Moyenne:
Température: TemperatureC °C 17.5 °C 19.6 °C
Point de rosée: DewpointC °C 7.6 °C 9 °C
Humidité: Humidity % 37 % 47 %
Vitesse du vent: 0 km/h 5.6 km/h 29.5 km/h
Rafales: 0 km/h - -
Vent:- - South
Pression: PressurehPa hPa 1001.2 hPa -
Précipitations: 0.0 mm    
Historical Graphs
 
 
Mesures pour : Septembre 11, 2017
Heure Temperature Point de rosée Pression Vent Vitesse du vent Rafales Humidité Pluie (par heure) Conditions
TemperatureC °C DewpointC °C PressurehPa hPa Calm     Humidity % HourlyPrecipMM mm SoftwareType W/m2
00:11 18.3 °C 8.2 °C 1001.9 hPa North 51 km/h 51 km/h 52 % 0.0 mm open2300-1.11 W/m2
01:11 17.9 °C 8.1 °C 1002.3 hPa NNW 8 km/h 41.7 km/h 53 % 0.0 mm open2300-1.11 W/m2
02:11 17.9 °C 7.6 °C 1001.6 hPa NNW 46.8 km/h 46.8 km/h 51 % 0.0 mm open2300-1.11 W/m2
03:11 17.6 °C 7.8 °C 1001.6 hPa North 31.9 km/h 31.9 km/h 53 % 0.0 mm open2300-1.11 W/m2
04:11 17.6 °C 7.8 °C 1001.2 hPa North 27.2 km/h 33.2 km/h 53 % 0.0 mm open2300-1.11 W/m2
06:11 17.5 °C 8.3 °C 1001.6 hPa North 54.4 km/h 54.4 km/h 55 % 0.0 mm open2300-1.11 W/m2
07:11 17.5 °C 8.6 °C 1002.3 hPa NW 37.5 km/h 37.5 km/h 56 % 0.0 mm open2300-1.11 W/m2
08:11 18.1 °C 8.6 °C 1002.3 hPa North 12.2 km/h 19.2 km/h 54 % 0.0 mm open2300-1.11 W/m2
10:11 19.2 °C 9.9 °C 1002.6 hPa WNW 41.2 km/h 42.2 km/h 55 % 0.0 mm open2300-1.11 W/m2
11:11 20.6 °C 11.2 °C 1002.3 hPa NW 42.6 km/h 42.6 km/h 55 % 0.0 mm open2300-1.11 W/m2
12:11 21.2 °C 12.9 °C 1002.6 hPa WNW 36.5 km/h 44.6 km/h 59 % 0.0 mm open2300-1.11 W/m2
13:11 21.9 °C 12.9 °C 1002.3 hPa WNW 26.7 km/h 42.6 km/h 57 % 0.0 mm open2300-1.11 W/m2
14:11 22.7 °C 12.8 °C 1002.3 hPa SW 5.6 km/h 27.2 km/h 54 % 0.0 mm open2300-1.11 W/m2
15:12 24.2 °C 11.5 °C 1001.9 hPa WNW 43.5 km/h 53.9 km/h 45 % 0.0 mm open2300-1.11 W/m2
16:11 24.1 °C 10.0 °C 1001.6 hPa West 44.1 km/h 47.3 km/h 41 % 0.0 mm open2300-1.11 W/m2
17:11 23.8 °C 9.7 °C 1001.9 hPa WNW 26.7 km/h 57.9 km/h 41 % 0.0 mm open2300-1.11 W/m2
18:11 24.6 °C 8.9 °C 1002.6 hPa WNW 20.3 km/h 29.5 km/h 37 % 0.0 mm open2300-1.11 W/m2
19:11 23.6 °C 8.8 °C 1002.9 hPa NNW 24.8 km/h 54.9 km/h 39 % 0.0 mm open2300-1.11 W/m2
20:11 21.9 °C 8.4 °C 1002.9 hPa North 29 km/h 45.4 km/h 42 % 0.0 mm open2300-1.11 W/m2
22:11 20.5 °C 7.8 °C 1005.0 hPa North 25.4 km/h 36.5 km/h 44 % 0.0 mm open2300-1.11 W/m2
23:11 19.9 °C 7.9 °C 1005.3 hPa North 11.6 km/h 46.3 km/h 46 % 0.0 mm open2300-1.11 W/m2
Observations météo à CASSIS
WU-History script by Weather Underground - 1 mb